sensor_id;sensor_type;location;lat;lon;timestamp;P1;durP1;ratioP1;P2;durP2;ratioP2
20776;SDS011;10548;47.504;8.248;2023-04-01T00:01:48;2.93;;;0.63;;
20776;SDS011;10548;47.504;8.248;2023-04-01T00:04:16;1.17;;;0.50;;
20776;SDS011;10548;47.504;8.248;2023-04-01T00:06:43;4.20;;;1.03;;
20776;SDS011;10548;47.504;8.248;2023-04-01T00:09:11;2.77;;;1.17;;
20776;SDS011;10548;47.504;8.248;2023-04-01T00:11:38;2.80;;;0.60;;
20776;SDS011;10548;47.504;8.248;2023-04-01T00:14:06;1.63;;;0.80;;
20776;SDS011;10548;47.504;8.248;2023-04-01T00:16:33;4.40;;;0.67;;
20776;SDS011;10548;47.504;8.248;2023-04-01T00:19:01;0.97;;;0.40;;
20776;SDS011;10548;47.504;8.248;2023-04-01T00:21:28;1.17;;;0.50;;
20776;SDS011;10548;47.504;8.248;2023-04-01T00:23:55;2.00;;;0.50;;
20776;SDS011;10548;47.504;8.248;2023-04-01T00:26:22;0.90;;;0.50;;
20776;SDS011;10548;47.504;8.248;2023-04-01T00:28:51;2.80;;;0.80;;
20776;SDS011;10548;47.504;8.248;2023-04-01T00:31:18;0.97;;;0.70;;
20776;SDS011;10548;47.504;8.248;2023-04-01T00:33:45;0.87;;;0.60;;
20776;SDS011;10548;47.504;8.248;2023-04-01T00:36:13;5.27;;;0.83;;
20776;SDS011;10548;47.504;8.248;2023-04-01T00:38:45;5.13;;;0.97;;
20776;SDS011;10548;47.504;8.248;2023-04-01T00:41:13;3.10;;;0.83;;
20776;SDS011;10548;47.504;8.248;2023-04-01T00:43:43;4.93;;;1.40;;
20776;SDS011;10548;47.504;8.248;2023-04-01T00:46:12;2.37;;;1.00;;
20776;SDS011;10548;47.504;8.248;2023-04-01T00:48:40;5.27;;;1.17;;
20776;SDS011;10548;47.504;8.248;2023-04-01T00:51:16;4.03;;;1.10;;
20776;SDS011;10548;47.504;8.248;2023-04-01T00:53:47;4.43;;;0.90;;
20776;SDS011;10548;47.504;8.248;2023-04-01T00:59:42;6.20;;;1.10;;
20776;SDS011;10548;47.504;8.248;2023-04-01T01:02:12;4.50;;;1.10;;
20776;SDS011;10548;47.504;8.248;2023-04-01T01:04:40;3.00;;;1.07;;
20776;SDS011;10548;47.504;8.248;2023-04-01T01:10:24;3.13;;;1.20;;
20776;SDS011;10548;47.504;8.248;2023-04-01T01:16:04;5.20;;;1.10;;
20776;SDS011;10548;47.504;8.248;2023-04-01T01:18:45;2.30;;;1.10;;
20776;SDS011;10548;47.504;8.248;2023-04-01T01:24:52;5.47;;;0.77;;
20776;SDS011;10548;47.504;8.248;2023-04-01T01:27:34;3.97;;;0.80;;
20776;SDS011;10548;47.504;8.248;2023-04-01T01:30:25;4.80;;;0.70;;
20776;SDS011;10548;47.504;8.248;2023-04-01T01:33:14;3.77;;;1.00;;
20776;SDS011;10548;47.504;8.248;2023-04-01T01:36:23;3.10;;;0.93;;
20776;SDS011;10548;47.504;8.248;2023-04-01T01:38:55;4.00;;;1.03;;
20776;SDS011;10548;47.504;8.248;2023-04-01T01:41:25;2.33;;;0.83;;
20776;SDS011;10548;47.504;8.248;2023-04-01T01:43:55;2.47;;;1.00;;
20776;SDS011;10548;47.504;8.248;2023-04-01T01:46:25;1.93;;;1.00;;
20776;SDS011;10548;47.504;8.248;2023-04-01T01:48:54;7.33;;;1.23;;
20776;SDS011;10548;47.504;8.248;2023-04-01T01:51:23;2.20;;;0.83;;
20776;SDS011;10548;47.504;8.248;2023-04-01T01:53:53;4.50;;;0.97;;
20776;SDS011;10548;47.504;8.248;2023-04-01T01:56:22;3.30;;;1.07;;
20776;SDS011;10548;47.504;8.248;2023-04-01T01:58:52;2.33;;;0.73;;
20776;SDS011;10548;47.504;8.248;2023-04-01T02:01:30;2.87;;;0.90;;
20776;SDS011;10548;47.504;8.248;2023-04-01T02:04:09;4.23;;;1.20;;
20776;SDS011;10548;47.504;8.248;2023-04-01T02:06:38;2.33;;;1.37;;
20776;SDS011;10548;47.504;8.248;2023-04-01T02:09:11;2.67;;;0.83;;
20776;SDS011;10548;47.504;8.248;2023-04-01T02:11:48;4.00;;;1.00;;
20776;SDS011;10548;47.504;8.248;2023-04-01T02:17:32;2.77;;;1.00;;
20776;SDS011;10548;47.504;8.248;2023-04-01T02:20:02;5.63;;;1.20;;
20776;SDS011;10548;47.504;8.248;2023-04-01T02:22:35;6.27;;;1.57;;
20776;SDS011;10548;47.504;8.248;2023-04-01T02:25:09;5.70;;;1.47;;
20776;SDS011;10548;47.504;8.248;2023-04-01T02:27:40;4.53;;;1.03;;
20776;SDS011;10548;47.504;8.248;2023-04-01T02:30:10;2.40;;;0.80;;
20776;SDS011;10548;47.504;8.248;2023-04-01T02:32:39;5.77;;;1.60;;
20776;SDS011;10548;47.504;8.248;2023-04-01T02:35:07;2.80;;;1.10;;
20776;SDS011;10548;47.504;8.248;2023-04-01T02:37:38;4.60;;;0.80;;
20776;SDS011;10548;47.504;8.248;2023-04-01T02:40:11;1.90;;;0.90;;
20776;SDS011;10548;47.504;8.248;2023-04-01T02:42:39;9.57;;;1.10;;
20776;SDS011;10548;47.504;8.248;2023-04-01T02:45:07;2.83;;;0.90;;
20776;SDS011;10548;47.504;8.248;2023-04-01T02:47:35;5.37;;;1.17;;
20776;SDS011;10548;47.504;8.248;2023-04-01T02:50:02;4.60;;;1.20;;
20776;SDS011;10548;47.504;8.248;2023-04-01T02:52:31;3.33;;;1.00;;
20776;SDS011;10548;47.504;8.248;2023-04-01T02:55:00;6.83;;;1.73;;
20776;SDS011;10548;47.504;8.248;2023-04-01T02:57:28;4.43;;;1.27;;
20776;SDS011;10548;47.504;8.248;2023-04-01T02:59:56;4.70;;;1.10;;
20776;SDS011;10548;47.504;8.248;2023-04-01T03:02:23;5.63;;;1.63;;
20776;SDS011;10548;47.504;8.248;2023-04-01T03:04:50;4.97;;;1.53;;
20776;SDS011;10548;47.504;8.248;2023-04-01T03:07:17;5.30;;;1.20;;
20776;SDS011;10548;47.504;8.248;2023-04-01T03:09:45;5.80;;;1.23;;
20776;SDS011;10548;47.504;8.248;2023-04-01T03:12:12;6.07;;;1.77;;
20776;SDS011;10548;47.504;8.248;2023-04-01T03:14:48;3.10;;;1.10;;
20776;SDS011;10548;47.504;8.248;2023-04-01T03:17:16;6.57;;;1.30;;
20776;SDS011;10548;47.504;8.248;2023-04-01T03:19:43;4.67;;;1.33;;
20776;SDS011;10548;47.504;8.248;2023-04-01T03:22:11;3.17;;;1.20;;
20776;SDS011;10548;47.504;8.248;2023-04-01T03:24:38;3.97;;;1.07;;
20776;SDS011;10548;47.504;8.248;2023-04-01T03:27:05;6.47;;;1.37;;
20776;SDS011;10548;47.504;8.248;2023-04-01T03:29:33;6.03;;;1.40;;
20776;SDS011;10548;47.504;8.248;2023-04-01T03:32:01;8.63;;;1.67;;
20776;SDS011;10548;47.504;8.248;2023-04-01T03:34:28;6.53;;;1.70;;
20776;SDS011;10548;47.504;8.248;2023-04-01T03:36:55;4.67;;;1.10;;
20776;SDS011;10548;47.504;8.248;2023-04-01T03:39:23;3.07;;;1.03;;
20776;SDS011;10548;47.504;8.248;2023-04-01T03:41:50;4.37;;;1.73;;
20776;SDS011;10548;47.504;8.248;2023-04-01T03:44:17;5.03;;;1.63;;
20776;SDS011;10548;47.504;8.248;2023-04-01T03:46:48;8.53;;;1.53;;
20776;SDS011;10548;47.504;8.248;2023-04-01T03:49:16;8.17;;;1.37;;
20776;SDS011;10548;47.504;8.248;2023-04-01T03:51:44;4.27;;;1.17;;
20776;SDS011;10548;47.504;8.248;2023-04-01T03:54:12;4.97;;;1.33;;
20776;SDS011;10548;47.504;8.248;2023-04-01T03:56:39;5.17;;;1.20;;
20776;SDS011;10548;47.504;8.248;2023-04-01T03:59:07;3.37;;;1.17;;
20776;SDS011;10548;47.504;8.248;2023-04-01T04:01:35;9.87;;;1.37;;
20776;SDS011;10548;47.504;8.248;2023-04-01T04:04:02;6.67;;;2.13;;
20776;SDS011;10548;47.504;8.248;2023-04-01T04:06:30;9.93;;;1.23;;
20776;SDS011;10548;47.504;8.248;2023-04-01T04:08:57;4.27;;;1.43;;
20776;SDS011;10548;47.504;8.248;2023-04-01T04:11:26;9.93;;;1.63;;
20776;SDS011;10548;47.504;8.248;2023-04-01T04:13:53;4.70;;;1.27;;
20776;SDS011;10548;47.504;8.248;2023-04-01T04:16:23;2.70;;;1.20;;
20776;SDS011;10548;47.504;8.248;2023-04-01T04:18:56;6.83;;;1.30;;
20776;SDS011;10548;47.504;8.248;2023-04-01T04:21:23;5.43;;;1.30;;
20776;SDS011;10548;47.504;8.248;2023-04-01T04:23:50;4.47;;;0.90;;
20776;SDS011;10548;47.504;8.248;2023-04-01T04:26:19;2.60;;;1.23;;
20776;SDS011;10548;47.504;8.248;2023-04-01T04:28:55;4.03;;;1.10;;
20776;SDS011;10548;47.504;8.248;2023-04-01T04:31:23;2.27;;;0.90;;
20776;SDS011;10548;47.504;8.248;2023-04-01T04:33:54;2.23;;;0.90;;
20776;SDS011;10548;47.504;8.248;2023-04-01T04:36:21;2.67;;;1.07;;
20776;SDS011;10548;47.504;8.248;2023-04-01T04:38:50;4.80;;;1.00;;
20776;SDS011;10548;47.504;8.248;2023-04-01T04:41:18;2.93;;;0.93;;
20776;SDS011;10548;47.504;8.248;2023-04-01T04:43:50;5.80;;;0.77;;
20776;SDS011;10548;47.504;8.248;2023-04-01T04:46:19;1.30;;;0.40;;
20776;SDS011;10548;47.504;8.248;2023-04-01T04:48:51;1.13;;;0.50;;
20776;SDS011;10548;47.504;8.248;2023-04-01T04:51:18;4.20;;;1.03;;
20776;SDS011;10548;47.504;8.248;2023-04-01T04:53:47;1.67;;;0.60;;
20776;SDS011;10548;47.504;8.248;2023-04-01T04:56:19;2.90;;;0.83;;
20776;SDS011;10548;47.504;8.248;2023-04-01T04:58:58;4.90;;;0.60;;
20776;SDS011;10548;47.504;8.248;2023-04-01T05:01:38;4.30;;;0.90;;
20776;SDS011;10548;47.504;8.248;2023-04-01T05:04:05;2.30;;;0.83;;
20776;SDS011;10548;47.504;8.248;2023-04-01T05:06:32;1.43;;;0.50;;
20776;SDS011;10548;47.504;8.248;2023-04-01T05:09:00;5.30;;;0.93;;
20776;SDS011;10548;47.504;8.248;2023-04-01T05:11:28;2.70;;;0.70;;
20776;SDS011;10548;47.504;8.248;2023-04-01T05:13:55;1.20;;;0.50;;
20776;SDS011;10548;47.504;8.248;2023-04-01T05:16:22;3.33;;;0.70;;
20776;SDS011;10548;47.504;8.248;2023-04-01T05:18:50;1.67;;;0.60;;
20776;SDS011;10548;47.504;8.248;2023-04-01T05:21:17;3.20;;;0.53;;
20776;SDS011;10548;47.504;8.248;2023-04-01T05:23:45;1.67;;;0.60;;
20776;SDS011;10548;47.504;8.248;2023-04-01T05:26:13;0.83;;;0.53;;
20776;SDS011;10548;47.504;8.248;2023-04-01T05:28:41;0.63;;;0.50;;
20776;SDS011;10548;47.504;8.248;2023-04-01T05:31:09;0.47;;;0.40;;
20776;SDS011;10548;47.504;8.248;2023-04-01T05:33:38;2.27;;;0.60;;
20776;SDS011;10548;47.504;8.248;2023-04-01T05:36:10;1.00;;;0.60;;
20776;SDS011;10548;47.504;8.248;2023-04-01T05:38:40;1.23;;;0.50;;
20776;SDS011;10548;47.504;8.248;2023-04-01T05:41:10;2.40;;;0.63;;
20776;SDS011;10548;47.504;8.248;2023-04-01T05:43:42;2.93;;;0.93;;
20776;SDS011;10548;47.504;8.248;2023-04-01T05:46:28;1.47;;;0.40;;
20776;SDS011;10548;47.504;8.248;2023-04-01T05:49:03;2.10;;;0.60;;
20776;SDS011;10548;47.504;8.248;2023-04-01T05:51:31;4.23;;;0.67;;
20776;SDS011;10548;47.504;8.248;2023-04-01T05:53:58;1.23;;;0.60;;
20776;SDS011;10548;47.504;8.248;2023-04-01T05:56:25;1.50;;;0.60;;
20776;SDS011;10548;47.504;8.248;2023-04-01T05:58:53;1.77;;;0.50;;
20776;SDS011;10548;47.504;8.248;2023-04-01T06:01:22;4.00;;;0.53;;
20776;SDS011;10548;47.504;8.248;2023-04-01T06:03:49;2.57;;;0.87;;
20776;SDS011;10548;47.504;8.248;2023-04-01T06:06:27;3.20;;;0.73;;
20776;SDS011;10548;47.504;8.248;2023-04-01T06:09:16;0.63;;;0.57;;
20776;SDS011;10548;47.504;8.248;2023-04-01T06:15:44;1.53;;;0.70;;
20776;SDS011;10548;47.504;8.248;2023-04-01T06:18:38;4.60;;;0.60;;
20776;SDS011;10548;47.504;8.248;2023-04-01T06:27:59;4.20;;;0.87;;
20776;SDS011;10548;47.504;8.248;2023-04-01T06:30:58;1.23;;;0.70;;
20776;SDS011;10548;47.504;8.248;2023-04-01T06:43:56;1.90;;;0.73;;
20776;SDS011;10548;47.504;8.248;2023-04-01T06:51:36;3.17;;;0.77;;
20776;SDS011;10548;47.504;8.248;2023-04-01T06:54:25;4.63;;;1.23;;
20776;SDS011;10548;47.504;8.248;2023-04-01T06:57:29;6.40;;;0.90;;
20776;SDS011;10548;47.504;8.248;2023-04-01T07:00:10;4.13;;;1.00;;
20776;SDS011;10548;47.504;8.248;2023-04-01T07:06:09;3.80;;;1.00;;
20776;SDS011;10548;47.504;8.248;2023-04-01T07:08:57;1.47;;;0.53;;
20776;SDS011;10548;47.504;8.248;2023-04-01T07:12:00;1.30;;;0.80;;
20776;SDS011;10548;47.504;8.248;2023-04-01T07:14:59;6.13;;;0.90;;
20776;SDS011;10548;47.504;8.248;2023-04-01T07:17:32;3.23;;;0.80;;
20776;SDS011;10548;47.504;8.248;2023-04-01T07:20:11;3.53;;;0.60;;
20776;SDS011;10548;47.504;8.248;2023-04-01T07:22:49;3.67;;;0.70;;
20776;SDS011;10548;47.504;8.248;2023-04-01T07:25:45;2.27;;;0.97;;
20776;SDS011;10548;47.504;8.248;2023-04-01T07:28:53;1.60;;;0.60;;
20776;SDS011;10548;47.504;8.248;2023-04-01T07:35:30;4.13;;;0.87;;
20776;SDS011;10548;47.504;8.248;2023-04-01T07:41:32;2.33;;;0.83;;
20776;SDS011;10548;47.504;8.248;2023-04-01T07:47:12;2.80;;;0.70;;
20776;SDS011;10548;47.504;8.248;2023-04-01T07:50:02;2.40;;;0.90;;
20776;SDS011;10548;47.504;8.248;2023-04-01T07:55:50;0.90;;;0.60;;
20776;SDS011;10548;47.504;8.248;2023-04-01T08:02:03;2.40;;;0.97;;
20776;SDS011;10548;47.504;8.248;2023-04-01T08:05:04;6.17;;;0.70;;
20776;SDS011;10548;47.504;8.248;2023-04-01T08:08:19;0.40;;;0.40;;
20776;SDS011;10548;47.504;8.248;2023-04-01T08:11:41;0.57;;;0.40;;
20776;SDS011;10548;47.504;8.248;2023-04-01T08:16:12;1.27;;;0.50;;
20776;SDS011;10548;47.504;8.248;2023-04-01T08:18:20;1.60;;;0.60;;
20776;SDS011;10548;47.504;8.248;2023-04-01T08:21:21;2.53;;;0.93;;
20776;SDS011;10548;47.504;8.248;2023-04-01T08:24:00;1.77;;;0.67;;
20776;SDS011;10548;47.504;8.248;2023-04-01T08:26:39;1.83;;;0.57;;
20776;SDS011;10548;47.504;8.248;2023-04-01T08:29:13;1.33;;;0.70;;
20776;SDS011;10548;47.504;8.248;2023-04-01T08:34:47;1.43;;;0.83;;
20776;SDS011;10548;47.504;8.248;2023-04-01T08:37:32;3.43;;;0.63;;
20776;SDS011;10548;47.504;8.248;2023-04-01T08:40:18;1.07;;;0.70;;
20776;SDS011;10548;47.504;8.248;2023-04-01T08:43:25;0.90;;;0.57;;
20776;SDS011;10548;47.504;8.248;2023-04-01T08:46:34;6.73;;;0.70;;
20776;SDS011;10548;47.504;8.248;2023-04-01T08:52:58;1.60;;;0.50;;
20776;SDS011;10548;47.504;8.248;2023-04-01T08:55:51;3.30;;;0.60;;
20776;SDS011;10548;47.504;8.248;2023-04-01T09:05:28;0.50;;;0.33;;
20776;SDS011;10548;47.504;8.248;2023-04-01T09:08:25;0.40;;;0.40;;
20776;SDS011;10548;47.504;8.248;2023-04-01T09:17:55;3.67;;;0.60;;
20776;SDS011;10548;47.504;8.248;2023-04-01T09:24:22;1.60;;;0.60;;
20776;SDS011;10548;47.504;8.248;2023-04-01T09:30:34;2.23;;;0.60;;
20776;SDS011;10548;47.504;8.248;2023-04-01T09:35:24;1.63;;;0.50;;
20776;SDS011;10548;47.504;8.248;2023-04-01T09:37:35;0.90;;;0.50;;
20776;SDS011;10548;47.504;8.248;2023-04-01T09:40:48;4.33;;;0.60;;
20776;SDS011;10548;47.504;8.248;2023-04-01T09:45:20;1.17;;;0.50;;
20776;SDS011;10548;47.504;8.248;2023-04-01T09:50:32;1.37;;;0.60;;
20776;SDS011;10548;47.504;8.248;2023-04-01T09:53:20;0.50;;;0.50;;
20776;SDS011;10548;47.504;8.248;2023-04-01T09:56:46;0.53;;;0.40;;
20776;SDS011;10548;47.504;8.248;2023-04-01T10:03:29;1.33;;;0.90;;
20776;SDS011;10548;47.504;8.248;2023-04-01T10:06:24;0.93;;;0.50;;
20776;SDS011;10548;47.504;8.248;2023-04-01T10:09:36;0.67;;;0.40;;
20776;SDS011;10548;47.504;8.248;2023-04-01T10:12:49;0.40;;;0.40;;
20776;SDS011;10548;47.504;8.248;2023-04-01T10:15:46;0.43;;;0.40;;
20776;SDS011;10548;47.504;8.248;2023-04-01T10:18:56;0.30;;;0.30;;
20776;SDS011;10548;47.504;8.248;2023-04-01T10:22:17;0.83;;;0.40;;
20776;SDS011;10548;47.504;8.248;2023-04-01T10:25:43;1.43;;;0.40;;
20776;SDS011;10548;47.504;8.248;2023-04-01T10:28:26;4.13;;;0.57;;
20776;SDS011;10548;47.504;8.248;2023-04-01T10:34:52;1.20;;;0.53;;
20776;SDS011;10548;47.504;8.248;2023-04-01T10:45:09;1.53;;;0.60;;
20776;SDS011;10548;47.504;8.248;2023-04-01T10:55:26;0.23;;;0.20;;
20776;SDS011;10548;47.504;8.248;2023-04-01T10:58:41;0.50;;;0.30;;
20776;SDS011;10548;47.504;8.248;2023-04-01T11:01:58;0.50;;;0.40;;
20776;SDS011;10548;47.504;8.248;2023-04-01T11:12:16;1.50;;;0.50;;
20776;SDS011;10548;47.504;8.248;2023-04-01T11:18:41;0.63;;;0.50;;
20776;SDS011;10548;47.504;8.248;2023-04-01T11:27:48;0.30;;;0.30;;
20776;SDS011;10548;47.504;8.248;2023-04-01T11:34:05;2.33;;;0.40;;
20776;SDS011;10548;47.504;8.248;2023-04-01T11:36:54;1.00;;;0.40;;
20776;SDS011;10548;47.504;8.248;2023-04-01T11:43:12;2.53;;;0.73;;
20776;SDS011;10548;47.504;8.248;2023-04-01T11:46:20;1.63;;;0.73;;
20776;SDS011;10548;47.504;8.248;2023-04-01T11:53:00;1.90;;;0.70;;
20776;SDS011;10548;47.504;8.248;2023-04-01T12:02:23;0.87;;;0.60;;
20776;SDS011;10548;47.504;8.248;2023-04-01T12:05:26;2.37;;;0.50;;
20776;SDS011;10548;47.504;8.248;2023-04-01T12:08:22;0.53;;;0.40;;
20776;SDS011;10548;47.504;8.248;2023-04-01T12:11:19;0.40;;;0.40;;
20776;SDS011;10548;47.504;8.248;2023-04-01T12:14:06;1.40;;;0.50;;
20776;SDS011;10548;47.504;8.248;2023-04-01T12:16:46;3.17;;;0.67;;
20776;SDS011;10548;47.504;8.248;2023-04-01T12:20:43;1.30;;;0.50;;
20776;SDS011;10548;47.504;8.248;2023-04-01T12:26:30;1.80;;;0.50;;
20776;SDS011;10548;47.504;8.248;2023-04-01T12:32:59;1.83;;;0.73;;
20776;SDS011;10548;47.504;8.248;2023-04-01T12:42:01;0.30;;;0.30;;
20776;SDS011;10548;47.504;8.248;2023-04-01T12:51:41;0.97;;;0.57;;
20776;SDS011;10548;47.504;8.248;2023-04-01T12:58:10;2.87;;;0.70;;
20776;SDS011;10548;47.504;8.248;2023-04-01T13:13:19;0.67;;;0.43;;
20776;SDS011;10548;47.504;8.248;2023-04-01T13:16:14;1.13;;;0.60;;
20776;SDS011;10548;47.504;8.248;2023-04-01T13:19:08;2.10;;;0.60;;
20776;SDS011;10548;47.504;8.248;2023-04-01T13:22:48;0.60;;;0.43;;
20776;SDS011;10548;47.504;8.248;2023-04-01T13:30:59;2.20;;;0.53;;
20776;SDS011;10548;47.504;8.248;2023-04-01T13:33:56;2.07;;;0.70;;
20776;SDS011;10548;47.504;8.248;2023-04-01T13:39:45;3.33;;;0.60;;
20776;SDS011;10548;47.504;8.248;2023-04-01T13:42:38;1.60;;;0.63;;
20776;SDS011;10548;47.504;8.248;2023-04-01T13:45:15;1.53;;;0.60;;
20776;SDS011;10548;47.504;8.248;2023-04-01T13:51:21;2.93;;;0.60;;
20776;SDS011;10548;47.504;8.248;2023-04-01T13:57:46;1.67;;;0.60;;
20776;SDS011;10548;47.504;8.248;2023-04-01T14:00:35;1.87;;;0.40;;
20776;SDS011;10548;47.504;8.248;2023-04-01T14:03:30;1.03;;;0.57;;
20776;SDS011;10548;47.504;8.248;2023-04-01T14:06:23;2.87;;;0.73;;
20776;SDS011;10548;47.504;8.248;2023-04-01T14:09:59;3.80;;;0.90;;
20776;SDS011;10548;47.504;8.248;2023-04-01T14:12:40;1.17;;;0.50;;
20776;SDS011;10548;47.504;8.248;2023-04-01T14:21:58;0.50;;;0.50;;
20776;SDS011;10548;47.504;8.248;2023-04-01T14:24:45;1.10;;;0.50;;
20776;SDS011;10548;47.504;8.248;2023-04-01T14:28:41;2.03;;;0.50;;
20776;SDS011;10548;47.504;8.248;2023-04-01T14:31:22;0.23;;;0.23;;
20776;SDS011;10548;47.504;8.248;2023-04-01T14:37:13;0.30;;;0.30;;
20776;SDS011;10548;47.504;8.248;2023-04-01T14:46:38;0.80;;;0.30;;
20776;SDS011;10548;47.504;8.248;2023-04-01T14:50:05;0.40;;;0.40;;
20776;SDS011;10548;47.504;8.248;2023-04-01T14:52:37;0.60;;;0.50;;
20776;SDS011;10548;47.504;8.248;2023-04-01T14:55:18;1.67;;;0.73;;
20776;SDS011;10548;47.504;8.248;2023-04-01T14:58:11;0.93;;;0.60;;
20776;SDS011;10548;47.504;8.248;2023-04-01T15:03:47;0.53;;;0.50;;
20776;SDS011;10548;47.504;8.248;2023-04-01T15:13:45;0.80;;;0.60;;
20776;SDS011;10548;47.504;8.248;2023-04-01T15:16:55;2.07;;;0.67;;
20776;SDS011;10548;47.504;8.248;2023-04-01T15:19:55;0.93;;;0.50;;
20776;SDS011;10548;47.504;8.248;2023-04-01T15:22:59;1.07;;;0.50;;
20776;SDS011;10548;47.504;8.248;2023-04-01T15:29:56;1.17;;;0.60;;
20776;SDS011;10548;47.504;8.248;2023-04-01T15:33:14;0.60;;;0.40;;
20776;SDS011;10548;47.504;8.248;2023-04-01T15:39:36;1.53;;;0.60;;
20776;SDS011;10548;47.504;8.248;2023-04-01T15:42:27;0.77;;;0.50;;
20776;SDS011;10548;47.504;8.248;2023-04-01T15:45:22;0.50;;;0.50;;
20776;SDS011;10548;47.504;8.248;2023-04-01T15:48:18;1.50;;;0.77;;
20776;SDS011;10548;47.504;8.248;2023-04-01T15:51:31;0.60;;;0.50;;
20776;SDS011;10548;47.504;8.248;2023-04-01T15:54:37;0.87;;;0.60;;
20776;SDS011;10548;47.504;8.248;2023-04-01T16:01:07;1.30;;;0.50;;
20776;SDS011;10548;47.504;8.248;2023-04-01T16:04:31;1.80;;;0.50;;
20776;SDS011;10548;47.504;8.248;2023-04-01T16:10:52;0.67;;;0.40;;
20776;SDS011;10548;47.504;8.248;2023-04-01T16:14:55;0.77;;;0.40;;
20776;SDS011;10548;47.504;8.248;2023-04-01T16:26:25;2.00;;;0.60;;
20776;SDS011;10548;47.504;8.248;2023-04-01T16:29:15;0.83;;;0.67;;
20776;SDS011;10548;47.504;8.248;2023-04-01T16:32:14;0.47;;;0.43;;
20776;SDS011;10548;47.504;8.248;2023-04-01T16:38:13;0.50;;;0.50;;
20776;SDS011;10548;47.504;8.248;2023-04-01T16:40:50;0.60;;;0.40;;
20776;SDS011;10548;47.504;8.248;2023-04-01T16:46:35;0.93;;;0.70;;
20776;SDS011;10548;47.504;8.248;2023-04-01T16:49:29;2.07;;;0.90;;
20776;SDS011;10548;47.504;8.248;2023-04-01T16:52:35;1.60;;;0.57;;
20776;SDS011;10548;47.504;8.248;2023-04-01T16:55:20;1.70;;;0.60;;
20776;SDS011;10548;47.504;8.248;2023-04-01T16:57:52;1.57;;;0.77;;
20776;SDS011;10548;47.504;8.248;2023-04-01T17:00:28;2.07;;;0.60;;
20776;SDS011;10548;47.504;8.248;2023-04-01T17:03:12;2.97;;;1.13;;
20776;SDS011;10548;47.504;8.248;2023-04-01T17:09:02;0.80;;;0.50;;
20776;SDS011;10548;47.504;8.248;2023-04-01T17:12:31;0.97;;;0.60;;
20776;SDS011;10548;47.504;8.248;2023-04-01T17:18:09;1.97;;;0.60;;
20776;SDS011;10548;47.504;8.248;2023-04-01T17:21:46;2.23;;;0.53;;
20776;SDS011;10548;47.504;8.248;2023-04-01T17:31:20;0.60;;;0.50;;
20776;SDS011;10548;47.504;8.248;2023-04-01T17:34:29;2.83;;;0.70;;
20776;SDS011;10548;47.504;8.248;2023-04-01T17:37:38;0.97;;;0.63;;
20776;SDS011;10548;47.504;8.248;2023-04-01T17:43:34;1.17;;;0.70;;
20776;SDS011;10548;47.504;8.248;2023-04-01T17:49:49;1.50;;;0.77;;
20776;SDS011;10548;47.504;8.248;2023-04-01T17:52:37;2.10;;;0.60;;
20776;SDS011;10548;47.504;8.248;2023-04-01T17:55:38;0.70;;;0.50;;
20776;SDS011;10548;47.504;8.248;2023-04-01T17:58:33;1.47;;;0.50;;
20776;SDS011;10548;47.504;8.248;2023-04-01T18:01:13;2.17;;;0.73;;
20776;SDS011;10548;47.504;8.248;2023-04-01T18:03:59;1.43;;;0.60;;
20776;SDS011;10548;47.504;8.248;2023-04-01T18:13:23;1.67;;;0.70;;
20776;SDS011;10548;47.504;8.248;2023-04-01T18:23:45;5.70;;;0.80;;
20776;SDS011;10548;47.504;8.248;2023-04-01T18:26:10;1.77;;;0.60;;
20776;SDS011;10548;47.504;8.248;2023-04-01T18:32:08;2.67;;;0.80;;
20776;SDS011;10548;47.504;8.248;2023-04-01T18:35:21;1.43;;;0.80;;
20776;SDS011;10548;47.504;8.248;2023-04-01T18:38:18;1.83;;;0.77;;
20776;SDS011;10548;47.504;8.248;2023-04-01T18:41:19;3.57;;;1.03;;
20776;SDS011;10548;47.504;8.248;2023-04-01T18:56:31;2.93;;;1.00;;
20776;SDS011;10548;47.504;8.248;2023-04-01T18:59:16;1.73;;;0.97;;
20776;SDS011;10548;47.504;8.248;2023-04-01T19:05:02;2.97;;;1.10;;
20776;SDS011;10548;47.504;8.248;2023-04-01T19:07:50;1.93;;;0.83;;
20776;SDS011;10548;47.504;8.248;2023-04-01T19:13:43;3.40;;;0.87;;
20776;SDS011;10548;47.504;8.248;2023-04-01T19:26:21;2.23;;;0.80;;
20776;SDS011;10548;47.504;8.248;2023-04-01T19:29:33;3.73;;;1.00;;
20776;SDS011;10548;47.504;8.248;2023-04-01T19:32:43;1.53;;;0.90;;
20776;SDS011;10548;47.504;8.248;2023-04-01T19:35:32;1.90;;;0.70;;
20776;SDS011;10548;47.504;8.248;2023-04-01T19:38:43;1.77;;;0.90;;
20776;SDS011;10548;47.504;8.248;2023-04-01T19:44:27;3.83;;;0.90;;
20776;SDS011;10548;47.504;8.248;2023-04-01T19:47:38;1.20;;;0.77;;
20776;SDS011;10548;47.504;8.248;2023-04-01T19:51:13;5.20;;;1.10;;
20776;SDS011;10548;47.504;8.248;2023-04-01T19:53:35;1.93;;;0.93;;
20776;SDS011;10548;47.504;8.248;2023-04-01T19:56:17;6.67;;;0.87;;
20776;SDS011;10548;47.504;8.248;2023-04-01T19:58:54;2.40;;;0.70;;
20776;SDS011;10548;47.504;8.248;2023-04-01T20:01:40;1.90;;;0.80;;
20776;SDS011;10548;47.504;8.248;2023-04-01T20:04:29;3.50;;;1.00;;
20776;SDS011;10548;47.504;8.248;2023-04-01T20:07:13;1.63;;;0.90;;
20776;SDS011;10548;47.504;8.248;2023-04-01T20:10:09;1.27;;;0.90;;
20776;SDS011;10548;47.504;8.248;2023-04-01T20:13:12;1.93;;;1.03;;
20776;SDS011;10548;47.504;8.248;2023-04-01T20:16:03;1.93;;;1.00;;
20776;SDS011;10548;47.504;8.248;2023-04-01T20:18:55;3.83;;;1.30;;
20776;SDS011;10548;47.504;8.248;2023-04-01T20:21:33;2.90;;;1.20;;
20776;SDS011;10548;47.504;8.248;2023-04-01T20:24:23;1.93;;;1.10;;
20776;SDS011;10548;47.504;8.248;2023-04-01T20:27:10;4.47;;;1.43;;
20776;SDS011;10548;47.504;8.248;2023-04-01T20:29:56;3.40;;;1.30;;
20776;SDS011;10548;47.504;8.248;2023-04-01T20:39:13;2.77;;;1.10;;
20776;SDS011;10548;47.504;8.248;2023-04-01T20:42:04;3.33;;;1.20;;
20776;SDS011;10548;47.504;8.248;2023-04-01T20:45:09;2.97;;;1.30;;
20776;SDS011;10548;47.504;8.248;2023-04-01T20:52:01;3.40;;;1.70;;
20776;SDS011;10548;47.504;8.248;2023-04-01T21:01:04;2.20;;;1.23;;
20776;SDS011;10548;47.504;8.248;2023-04-01T21:04:17;2.90;;;1.70;;
20776;SDS011;10548;47.504;8.248;2023-04-01T21:11:01;2.43;;;0.83;;
20776;SDS011;10548;47.504;8.248;2023-04-01T21:20:33;1.10;;;0.60;;
20776;SDS011;10548;47.504;8.248;2023-04-01T21:23:37;2.43;;;0.87;;
20776;SDS011;10548;47.504;8.248;2023-04-01T21:26:32;1.93;;;0.87;;
20776;SDS011;10548;47.504;8.248;2023-04-01T21:29:25;1.87;;;0.80;;
20776;SDS011;10548;47.504;8.248;2023-04-01T21:35:38;1.77;;;0.60;;
20776;SDS011;10548;47.504;8.248;2023-04-01T21:38:39;1.83;;;0.70;;
20776;SDS011;10548;47.504;8.248;2023-04-01T21:41:34;1.40;;;0.50;;
20776;SDS011;10548;47.504;8.248;2023-04-01T21:47:22;1.40;;;0.60;;
20776;SDS011;10548;47.504;8.248;2023-04-01T21:50:27;1.83;;;0.80;;
20776;SDS011;10548;47.504;8.248;2023-04-01T21:59:47;2.50;;;0.93;;
20776;SDS011;10548;47.504;8.248;2023-04-01T22:05:55;1.37;;;0.80;;
20776;SDS011;10548;47.504;8.248;2023-04-01T22:08:52;2.03;;;0.80;;
20776;SDS011;10548;47.504;8.248;2023-04-01T22:11:47;1.53;;;0.90;;
20776;SDS011;10548;47.504;8.248;2023-04-01T22:14:45;0.50;;;0.50;;
20776;SDS011;10548;47.504;8.248;2023-04-01T22:17:51;0.63;;;0.50;;
20776;SDS011;10548;47.504;8.248;2023-04-01T22:20:39;2.33;;;0.70;;
20776;SDS011;10548;47.504;8.248;2023-04-01T22:27:12;0.93;;;0.47;;
20776;SDS011;10548;47.504;8.248;2023-04-01T22:30:08;3.07;;;0.80;;
20776;SDS011;10548;47.504;8.248;2023-04-01T22:32:55;2.67;;;0.70;;
20776;SDS011;10548;47.504;8.248;2023-04-01T22:35:47;2.03;;;0.87;;
20776;SDS011;10548;47.504;8.248;2023-04-01T22:38:45;2.03;;;0.67;;
20776;SDS011;10548;47.504;8.248;2023-04-01T22:41:29;1.53;;;0.70;;
20776;SDS011;10548;47.504;8.248;2023-04-01T22:45:23;0.77;;;0.70;;
20776;SDS011;10548;47.504;8.248;2023-04-01T22:50:43;2.43;;;0.90;;
20776;SDS011;10548;47.504;8.248;2023-04-01T22:53:46;1.33;;;0.70;;